createdAt,value
2019-03-25T00:01:34.636Z,5.55
2019-03-25T00:04:02.836Z,5.45
2019-03-25T00:06:30.832Z,5.40
2019-03-25T00:09:05.317Z,5.62
2019-03-25T00:11:28.599Z,4.78
2019-03-25T00:13:56.675Z,5.42
2019-03-25T00:16:24.647Z,5.28
2019-03-25T00:18:52.615Z,5.20
2019-03-25T00:21:20.694Z,5.58
2019-03-25T00:23:48.784Z,5.58
2019-03-25T00:26:16.772Z,5.95
2019-03-25T00:28:44.752Z,5.22
2019-03-25T00:31:12.752Z,5.15
2019-03-25T00:33:40.742Z,5.87
2019-03-25T00:36:08.725Z,6.83
2019-03-25T00:38:36.712Z,8.58
2019-03-25T00:41:04.835Z,10.15
2019-03-25T00:43:32.816Z,10.63
2019-03-25T00:46:00.784Z,10.93
2019-03-25T00:48:28.776Z,10.18
2019-03-25T00:50:56.769Z,9.10
2019-03-25T00:53:24.833Z,8.70
2019-03-25T00:55:52.829Z,8.18
2019-03-25T00:58:20.801Z,7.78
2019-03-25T01:00:48.885Z,8.08
2019-03-25T01:03:16.909Z,8.30
2019-03-25T01:05:44.885Z,7.97
2019-03-25T01:08:12.950Z,7.45
2019-03-25T01:10:40.977Z,7.78
2019-03-25T01:13:08.947Z,7.83
2019-03-25T01:15:37.024Z,7.47
2019-03-25T01:18:16.133Z,6.65
2019-03-25T01:20:34.996Z,7.05
2019-03-25T01:23:02.961Z,6.22
2019-03-25T01:25:30.948Z,6.10
2019-03-25T01:27:58.919Z,6.22
2019-03-25T01:30:26.976Z,6.05
2019-03-25T01:32:54.979Z,6.10
2019-03-25T01:35:22.955Z,6.05
2019-03-25T01:37:50.940Z,5.85
2019-03-25T01:40:19.089Z,6.10
2019-03-25T01:42:47.084Z,6.40
2019-03-25T01:45:15.080Z,5.65
2019-03-25T01:47:43.146Z,6.67
2019-03-25T01:50:11.309Z,6.17
2019-03-25T01:52:39.296Z,6.78
2019-03-25T01:55:13.511Z,6.50
2019-03-25T01:57:37.294Z,6.60
2019-03-25T02:00:06.718Z,6.40
2019-03-25T02:02:34.820Z,6.58
2019-03-25T02:05:02.884Z,6.85
2019-03-25T02:07:30.875Z,6.15
2019-03-25T02:09:58.985Z,6.65
2019-03-25T02:12:27.065Z,6.53
2019-03-25T02:14:54.924Z,6.03
2019-03-25T02:17:22.937Z,6.20
2019-03-25T02:19:50.923Z,6.33
2019-03-25T02:22:19.429Z,6.85
2019-03-25T02:24:47.588Z,5.90
2019-03-25T02:27:15.441Z,6.62
2019-03-25T02:29:43.520Z,6.58
2019-03-25T02:32:11.613Z,6.25
2019-03-25T02:34:39.594Z,6.92
2019-03-25T02:37:07.581Z,6.78
2019-03-25T02:39:35.576Z,6.35
2019-03-25T02:42:03.657Z,7.42
2019-03-25T02:44:31.730Z,6.72
2019-03-25T02:46:59.830Z,7.20
2019-03-25T02:49:27.802Z,7.70
2019-03-25T02:51:55.795Z,8.85
2019-03-25T02:54:23.806Z,8.53
2019-03-25T02:56:51.778Z,9.35
2019-03-25T02:59:19.898Z,9.63
2019-03-25T03:01:47.971Z,9.15
2019-03-25T03:04:15.959Z,9.58
2019-03-25T03:06:43.949Z,9.70
2019-03-25T03:09:12.045Z,10.23
2019-03-25T03:11:40.022Z,10.23
2019-03-25T03:14:08.125Z,9.05
2019-03-25T03:16:36.192Z,8.00
2019-03-25T03:19:04.292Z,9.40
2019-03-25T03:21:32.270Z,8.33
2019-03-25T03:24:00.230Z,7.65
2019-03-25T03:26:28.198Z,6.58
2019-03-25T03:28:56.219Z,6.83
2019-03-25T03:31:24.181Z,6.60
2019-03-25T03:33:52.265Z,6.20
2019-03-25T03:36:20.312Z,6.10
2019-03-25T03:38:48.498Z,6.47
2019-03-25T03:41:16.590Z,6.25
2019-03-25T03:43:44.668Z,5.35
2019-03-25T03:46:12.714Z,5.20
2019-03-25T03:48:40.797Z,5.47
2019-03-25T03:51:08.683Z,5.50
2019-03-25T03:53:36.658Z,5.45
2019-03-25T03:56:12.951Z,5.72
2019-03-25T03:58:34.623Z,5.47
2019-03-25T04:01:02.712Z,6.37
2019-03-25T04:03:30.776Z,5.42
2019-03-25T04:05:58.883Z,5.53
2019-03-25T04:08:26.848Z,4.62
2019-03-25T04:10:54.819Z,5.15
2019-03-25T04:13:22.816Z,4.90
2019-03-25T04:15:50.801Z,4.35
2019-03-25T04:18:18.769Z,4.90
2019-03-25T04:20:46.756Z,5.67
2019-03-25T04:23:14.725Z,5.03
2019-03-25T04:25:42.819Z,5.00
2019-03-25T04:28:10.692Z,4.17
2019-03-25T04:30:38.658Z,5.25
2019-03-25T04:33:06.646Z,4.87
2019-03-25T04:35:34.620Z,4.92
2019-03-25T04:38:02.614Z,4.50
2019-03-25T04:40:30.741Z,4.40
2019-03-25T04:42:59.017Z,3.95
2019-03-25T04:45:26.988Z,4.80
2019-03-25T04:47:54.964Z,4.35
2019-03-25T04:50:23.036Z,4.70
2019-03-25T04:52:51.030Z,4.25
2019-03-25T04:55:19.616Z,4.15
2019-03-25T04:57:47.692Z,4.35
2019-03-25T05:00:21.583Z,3.42
2019-03-25T05:02:49.600Z,4.20
2019-03-25T05:05:17.632Z,4.00
2019-03-25T05:07:45.641Z,4.35
2019-03-25T05:10:13.768Z,3.77
2019-03-25T05:12:41.893Z,4.97
2019-03-25T05:15:09.966Z,4.10
2019-03-25T05:17:37.964Z,5.17
2019-03-25T05:20:06.045Z,4.05
2019-03-25T05:22:34.013Z,4.15
2019-03-25T05:25:01.997Z,4.37
2019-03-25T05:27:30.107Z,3.72
2019-03-25T05:29:58.100Z,4.72
2019-03-25T05:32:26.092Z,4.30
2019-03-25T05:34:54.202Z,5.62
2019-03-25T05:37:22.288Z,4.85
2019-03-25T05:39:50.320Z,4.62
2019-03-25T05:42:18.374Z,5.25
2019-03-25T05:44:46.361Z,4.50
2019-03-25T05:47:14.441Z,3.90
2019-03-25T05:49:42.565Z,5.28
2019-03-25T05:52:10.526Z,4.97
2019-03-25T05:54:38.507Z,4.25
2019-03-25T05:57:06.502Z,6.40
2019-03-25T05:59:34.485Z,3.87
2019-03-25T06:02:02.632Z,4.72
2019-03-25T06:04:30.621Z,5.28
2019-03-25T06:06:58.704Z,4.17
2019-03-25T06:09:26.709Z,4.65
2019-03-25T06:11:54.673Z,4.80
2019-03-25T06:14:22.785Z,4.22
2019-03-25T06:16:50.783Z,4.45
2019-03-25T06:19:18.808Z,4.40
2019-03-25T06:21:46.793Z,4.40
2019-03-25T06:24:14.924Z,3.98
2019-03-25T06:26:42.933Z,4.50
2019-03-25T06:29:10.916Z,4.47
2019-03-25T06:31:38.884Z,3.92
2019-03-25T06:34:06.976Z,3.00
2019-03-25T06:36:34.949Z,3.98
2019-03-25T06:39:04.345Z,4.03
2019-03-25T06:41:32.320Z,3.67
2019-03-25T06:44:00.410Z,4.67
2019-03-25T06:46:28.388Z,3.72
2019-03-25T06:48:56.480Z,4.20
2019-03-25T06:51:24.428Z,3.83
2019-03-25T06:53:52.376Z,3.72
2019-03-25T06:56:20.343Z,3.62
2019-03-25T06:58:48.322Z,4.22
2019-03-25T07:01:16.283Z,3.55
2019-03-25T07:03:44.354Z,3.35
2019-03-25T07:06:12.455Z,4.85
2019-03-25T07:08:40.278Z,4.72
2019-03-25T07:11:08.462Z,4.08
2019-03-25T07:13:36.460Z,4.22
2019-03-25T07:16:04.431Z,4.30
2019-03-25T07:18:32.400Z,4.20
2019-03-25T07:21:00.425Z,3.50
2019-03-25T07:23:28.503Z,3.85
2019-03-25T07:25:56.581Z,3.80
2019-03-25T07:28:24.699Z,3.47
2019-03-25T07:30:52.657Z,3.80
2019-03-25T07:33:20.745Z,4.35
2019-03-25T07:35:48.640Z,4.40
2019-03-25T07:38:16.638Z,3.45
2019-03-25T07:40:44.602Z,3.55
2019-03-25T07:43:12.716Z,3.95
2019-03-25T07:45:40.702Z,4.37
2019-03-25T07:48:08.677Z,5.37
2019-03-25T07:50:36.661Z,3.90
2019-03-25T07:53:04.809Z,4.95
2019-03-25T07:55:32.888Z,5.08
2019-03-25T07:58:00.885Z,5.00
2019-03-25T08:00:28.864Z,4.37
2019-03-25T08:02:56.809Z,3.22
2019-03-25T08:05:24.802Z,3.52
2019-03-25T08:07:52.846Z,3.47
2019-03-25T08:10:31.226Z,3.92
2019-03-25T08:12:59.265Z,4.33
2019-03-25T08:15:27.327Z,3.80
2019-03-25T08:17:55.403Z,2.98
2019-03-25T08:20:23.382Z,4.53
2019-03-25T08:22:51.371Z,3.30
2019-03-25T08:25:19.364Z,3.70
2019-03-25T08:27:59.123Z,4.20
2019-03-25T08:30:17.744Z,3.58
2019-03-25T08:32:45.768Z,4.50
2019-03-25T08:35:13.737Z,3.47
2019-03-25T08:37:41.828Z,3.22
2019-03-25T08:40:09.933Z,3.10
2019-03-25T08:42:37.897Z,3.65
2019-03-25T08:45:06.536Z,4.12
2019-03-25T08:47:34.533Z,2.98
2019-03-25T08:50:02.524Z,3.17
2019-03-25T08:52:30.484Z,3.47
2019-03-25T08:54:58.507Z,2.92
2019-03-25T08:57:26.583Z,3.02
2019-03-25T08:59:56.506Z,2.90
2019-03-25T09:02:24.510Z,2.55
2019-03-25T09:04:52.562Z,2.10
2019-03-25T09:07:20.534Z,1.92
2019-03-25T09:09:48.540Z,1.42
2019-03-25T09:12:16.684Z,1.92
2019-03-25T09:14:44.800Z,1.70
2019-03-25T09:17:12.784Z,2.05
2019-03-25T09:19:40.769Z,2.37
2019-03-25T09:22:09.077Z,2.62
2019-03-25T09:24:37.060Z,2.90
2019-03-25T09:27:05.033Z,2.90
2019-03-25T09:29:33.132Z,2.83
2019-03-25T09:32:01.906Z,2.42
2019-03-25T09:34:29.884Z,2.75
2019-03-25T09:36:58.289Z,3.30
2019-03-25T09:39:26.275Z,3.58
2019-03-25T09:41:54.511Z,4.10
2019-03-25T09:44:23.214Z,4.03
2019-03-25T09:46:51.297Z,4.00
2019-03-25T09:49:19.297Z,3.20
2019-03-25T09:51:47.285Z,3.55
2019-03-25T09:54:15.241Z,4.28
2019-03-25T09:56:43.217Z,3.30
2019-03-25T09:59:11.215Z,3.85
2019-03-25T10:01:39.186Z,3.55
2019-03-25T10:04:07.355Z,3.67
2019-03-25T10:06:35.472Z,4.05
2019-03-25T10:09:08.181Z,4.12
2019-03-25T10:11:36.142Z,3.52
2019-03-25T10:14:04.248Z,3.98
2019-03-25T10:16:32.217Z,3.33
2019-03-25T10:19:00.188Z,4.28
2019-03-25T10:21:28.190Z,4.47
2019-03-25T10:23:56.261Z,4.60
2019-03-25T10:26:24.241Z,4.33
2019-03-25T10:28:52.241Z,4.40
2019-03-25T10:31:20.364Z,4.33
2019-03-25T10:33:48.428Z,3.75
2019-03-25T10:36:16.422Z,4.40
2019-03-25T10:38:44.391Z,4.47
2019-03-25T10:41:12.476Z,3.17
2019-03-25T10:43:40.519Z,3.45
2019-03-25T10:46:08.501Z,3.60
2019-03-25T10:48:36.493Z,3.75
2019-03-25T10:51:04.588Z,3.40
2019-03-25T10:53:32.556Z,3.12
2019-03-25T10:56:00.568Z,3.08
2019-03-25T10:58:28.525Z,3.25
2019-03-25T11:00:56.611Z,2.77
2019-03-25T11:03:24.619Z,3.08
2019-03-25T11:05:52.630Z,2.87
2019-03-25T11:08:20.703Z,2.75
2019-03-25T11:10:48.740Z,3.20
2019-03-25T11:13:16.823Z,3.22
2019-03-25T11:15:44.813Z,3.10
2019-03-25T11:18:12.908Z,3.12
2019-03-25T11:20:40.879Z,3.37
2019-03-25T11:23:08.869Z,2.60
2019-03-25T11:25:36.888Z,2.62
2019-03-25T11:28:22.493Z,2.80
2019-03-25T11:31:00.169Z,3.30
2019-03-25T11:33:28.340Z,4.22
2019-03-25T11:35:56.427Z,4.12
2019-03-25T11:38:24.649Z,4.47
2019-03-25T11:40:52.676Z,4.40
2019-03-25T11:43:20.714Z,3.77
2019-03-25T11:45:48.868Z,3.27
2019-03-25T11:48:17.124Z,3.10
2019-03-25T11:50:45.813Z,2.92
2019-03-25T11:53:13.800Z,2.85
2019-03-25T11:55:41.868Z,2.58
2019-03-25T11:58:09.951Z,2.33
2019-03-25T12:00:37.932Z,2.50
2019-03-25T12:03:05.945Z,2.47
2019-03-25T12:05:33.922Z,2.80
2019-03-25T12:08:01.916Z,2.87
2019-03-25T12:10:29.906Z,2.58
2019-03-25T12:12:57.878Z,2.50
2019-03-25T12:15:25.841Z,2.35
2019-03-25T12:17:53.939Z,3.30
2019-03-25T12:20:21.904Z,2.65
2019-03-25T12:22:49.917Z,3.05
2019-03-25T12:25:17.925Z,1.90
2019-03-25T12:27:45.892Z,3.10
2019-03-25T12:30:13.964Z,3.22
2019-03-25T12:32:41.866Z,2.50
2019-03-25T12:35:09.856Z,3.10
2019-03-25T12:37:37.831Z,2.60
2019-03-25T12:40:07.884Z,2.98
2019-03-25T12:42:35.669Z,3.83
2019-03-25T12:45:03.694Z,3.15
2019-03-25T12:47:31.705Z,2.85
2019-03-25T12:49:59.761Z,2.58
2019-03-25T12:52:27.740Z,2.62
2019-03-25T12:54:55.939Z,1.90
2019-03-25T12:57:24.012Z,2.70
2019-03-25T12:59:52.033Z,3.02
2019-03-25T13:02:19.999Z,2.35
2019-03-25T13:04:48.036Z,2.27
2019-03-25T13:07:16.032Z,2.65
2019-03-25T13:09:44.009Z,2.70
2019-03-25T13:12:11.987Z,3.58
2019-03-25T13:14:39.992Z,3.00
2019-03-25T13:17:07.955Z,3.02
2019-03-25T13:19:36.036Z,3.67
2019-03-25T13:22:04.116Z,3.10
2019-03-25T13:24:32.083Z,2.72
2019-03-25T13:27:00.133Z,3.50
2019-03-25T13:29:28.084Z,2.70
2019-03-25T13:31:56.147Z,3.20
2019-03-25T13:34:24.141Z,3.02
2019-03-25T13:36:52.112Z,2.87
2019-03-25T13:39:20.223Z,2.70
2019-03-25T13:41:48.196Z,3.50
2019-03-25T13:44:16.173Z,2.80
2019-03-25T13:46:44.073Z,3.10
2019-03-25T13:49:12.136Z,3.92
2019-03-25T13:51:40.107Z,3.25
2019-03-25T13:54:08.188Z,2.52
2019-03-25T13:56:36.249Z,3.02
2019-03-25T13:59:04.336Z,2.67
2019-03-25T14:01:32.373Z,2.90
2019-03-25T14:04:00.296Z,2.85
2019-03-25T14:06:28.296Z,3.05
2019-03-25T14:08:56.287Z,2.20
2019-03-25T14:11:24.271Z,2.12
2019-03-25T14:13:52.256Z,2.55
2019-03-25T14:16:20.297Z,2.85
2019-03-25T14:18:48.292Z,3.02
2019-03-25T14:21:16.400Z,3.33
2019-03-25T14:23:44.396Z,3.08
2019-03-25T14:26:12.364Z,3.10
2019-03-25T14:28:40.352Z,3.98
2019-03-25T14:31:08.345Z,2.55
2019-03-25T14:33:36.362Z,3.25
2019-03-25T14:36:04.338Z,2.90
2019-03-25T14:38:32.333Z,2.77
2019-03-25T14:41:00.305Z,3.65
2019-03-25T14:43:28.387Z,3.33
2019-03-25T14:45:56.400Z,2.50
2019-03-25T14:48:24.376Z,2.58
2019-03-25T14:50:52.360Z,3.17
2019-03-25T14:53:20.373Z,2.90
2019-03-25T14:55:48.428Z,2.50
2019-03-25T14:58:16.566Z,2.52
2019-03-25T15:00:44.504Z,3.87
2019-03-25T15:03:12.528Z,2.33
2019-03-25T15:05:40.546Z,3.30
2019-03-25T15:08:08.553Z,3.33
2019-03-25T15:10:36.624Z,3.75
2019-03-25T15:13:04.722Z,2.47
2019-03-25T15:15:32.811Z,3.20
2019-03-25T15:18:00.870Z,2.90
2019-03-25T15:20:28.857Z,3.80
2019-03-25T15:22:56.839Z,3.27
2019-03-25T15:25:24.998Z,3.02
2019-03-25T15:27:52.980Z,2.87
2019-03-25T15:30:20.950Z,3.70
2019-03-25T15:32:48.956Z,2.50
2019-03-25T15:35:16.936Z,2.60
2019-03-25T15:37:45.024Z,4.83
2019-03-25T15:40:13.362Z,2.75
2019-03-25T15:42:41.222Z,2.90
2019-03-25T15:45:09.447Z,2.92
2019-03-25T15:47:37.671Z,2.77
2019-03-25T15:50:06.668Z,3.33
2019-03-25T15:52:34.657Z,3.47
2019-03-25T15:55:02.636Z,3.92
2019-03-25T15:57:30.836Z,2.98
2019-03-25T15:59:59.071Z,3.87
2019-03-25T16:02:27.040Z,2.65
2019-03-25T16:04:55.129Z,2.83
2019-03-25T16:07:23.113Z,2.85
2019-03-25T16:09:51.180Z,2.50
2019-03-25T16:12:19.236Z,2.92
2019-03-25T16:14:47.475Z,3.17
2019-03-25T16:17:15.455Z,2.90
2019-03-25T16:19:43.449Z,3.95
2019-03-25T16:22:11.540Z,2.67
2019-03-25T16:24:39.624Z,2.67
2019-03-25T16:27:07.597Z,3.33
2019-03-25T16:29:35.573Z,3.58
2019-03-25T16:32:03.564Z,3.45
2019-03-25T16:34:31.547Z,3.20
2019-03-25T16:36:59.549Z,3.27
2019-03-25T16:39:27.796Z,2.80
2019-03-25T16:41:55.796Z,3.60
2019-03-25T16:44:23.946Z,3.17
2019-03-25T16:46:51.916Z,3.62
2019-03-25T16:49:19.950Z,3.25
2019-03-25T16:51:47.946Z,3.20
2019-03-25T16:54:15.738Z,3.35
2019-03-25T16:56:43.728Z,3.02
2019-03-25T16:59:11.711Z,3.15
2019-03-25T17:01:39.660Z,3.47
2019-03-25T17:04:07.607Z,3.08
2019-03-25T17:06:35.591Z,3.27
2019-03-25T17:09:04.980Z,3.33
2019-03-25T17:11:32.851Z,3.20
2019-03-25T17:14:00.815Z,4.00
2019-03-25T17:16:28.761Z,3.72
2019-03-25T17:18:56.627Z,3.85
2019-03-25T17:21:24.617Z,4.35
2019-03-25T17:23:52.715Z,3.40
2019-03-25T17:26:20.764Z,3.62
2019-03-25T17:28:48.744Z,4.53
2019-03-25T17:31:20.998Z,3.98
2019-03-25T17:33:46.249Z,3.95
2019-03-25T17:36:14.076Z,4.45
2019-03-25T17:38:42.017Z,5.15
2019-03-25T17:41:09.973Z,4.22
2019-03-25T17:43:37.947Z,4.42
2019-03-25T17:46:05.957Z,4.28
2019-03-25T17:48:34.132Z,4.58
2019-03-25T17:51:02.285Z,4.83
2019-03-25T17:53:30.288Z,4.72
2019-03-25T17:55:58.355Z,4.78
2019-03-25T17:58:26.361Z,5.28
2019-03-25T18:01:16.255Z,4.37
2019-03-25T18:03:44.404Z,4.35
2019-03-25T18:06:12.404Z,4.35
2019-03-25T18:08:40.384Z,4.97
2019-03-25T18:11:08.421Z,4.15
2019-03-25T18:13:36.455Z,4.62
2019-03-25T18:16:04.472Z,5.28
2019-03-25T18:18:32.643Z,4.33
2019-03-25T18:21:00.630Z,5.10
2019-03-25T18:23:28.616Z,4.37
2019-03-25T18:25:56.632Z,4.37
2019-03-25T18:28:24.624Z,4.37
2019-03-25T18:30:52.741Z,4.67
2019-03-25T18:33:20.998Z,4.92
2019-03-25T18:35:49.045Z,4.17
2019-03-25T18:38:17.015Z,4.58
2019-03-25T18:40:45.007Z,3.37
2019-03-25T18:43:12.957Z,4.50
2019-03-25T18:45:41.135Z,3.95
2019-03-25T18:48:09.132Z,4.37
2019-03-25T18:50:37.233Z,3.85
2019-03-25T18:53:05.350Z,3.77
2019-03-25T18:55:33.548Z,5.05
2019-03-25T18:58:01.573Z,4.28
2019-03-25T19:00:30.872Z,4.17
2019-03-25T19:02:58.853Z,4.53
2019-03-25T19:05:26.908Z,4.45
2019-03-25T19:07:55.198Z,4.50
2019-03-25T19:10:26.731Z,4.70
2019-03-25T19:12:54.864Z,4.53
2019-03-25T19:15:22.825Z,5.87
2019-03-25T19:17:50.801Z,5.47
2019-03-25T19:20:18.948Z,5.35
2019-03-25T19:22:46.943Z,4.35
2019-03-25T19:25:14.991Z,4.65
2019-03-25T19:27:42.971Z,4.25
2019-03-25T19:30:12.976Z,4.72
2019-03-25T19:32:40.899Z,5.25
2019-03-25T19:35:09.157Z,4.95
2019-03-25T19:37:37.136Z,5.20
2019-03-25T19:40:05.771Z,4.70
2019-03-25T19:42:33.738Z,4.35
2019-03-25T19:45:01.753Z,4.40
2019-03-25T19:47:29.678Z,5.15
2019-03-25T19:49:57.659Z,4.15
2019-03-25T19:52:25.763Z,3.98
2019-03-25T19:54:53.711Z,4.05
2019-03-25T19:57:21.699Z,4.35
2019-03-25T19:59:49.783Z,4.33
2019-03-25T20:02:19.347Z,4.67
2019-03-25T20:04:47.802Z,4.00
2019-03-25T20:07:15.792Z,4.28
2019-03-25T20:09:43.762Z,4.25
2019-03-25T20:12:11.908Z,5.17
2019-03-25T20:14:39.861Z,4.67
2019-03-25T20:17:07.841Z,4.37
2019-03-25T20:19:35.861Z,4.97
2019-03-25T20:22:03.986Z,5.35
2019-03-25T20:24:32.002Z,4.78
2019-03-25T20:27:00.288Z,4.70
2019-03-25T20:29:28.532Z,4.95
2019-03-25T20:31:56.488Z,5.62
2019-03-25T20:34:24.419Z,4.62
2019-03-25T20:36:52.547Z,5.05
2019-03-25T20:39:20.543Z,4.87
2019-03-25T20:41:48.680Z,5.70
2019-03-25T20:44:16.689Z,5.62
2019-03-25T20:46:44.799Z,5.72
2019-03-25T20:49:12.716Z,4.62
2019-03-25T20:51:40.677Z,5.72
2019-03-25T20:54:08.675Z,4.40
2019-03-25T20:56:36.616Z,4.42
2019-03-25T20:59:04.632Z,4.97
2019-03-25T21:01:32.656Z,5.83
2019-03-25T21:04:00.623Z,5.12
2019-03-25T21:06:28.667Z,4.90
2019-03-25T21:08:56.845Z,5.22
2019-03-25T21:11:24.814Z,5.33
2019-03-25T21:13:52.797Z,4.58
2019-03-25T21:16:20.813Z,5.20
2019-03-25T21:18:48.839Z,5.37
2019-03-25T21:21:16.808Z,5.55
2019-03-25T21:23:46.078Z,5.50
2019-03-25T21:26:14.155Z,4.35
2019-03-25T21:28:42.145Z,5.20
2019-03-25T21:31:10.194Z,5.72
2019-03-25T21:33:38.401Z,4.67
2019-03-25T21:36:06.499Z,5.75
2019-03-25T21:38:34.614Z,4.75
2019-03-25T21:41:02.929Z,3.80
2019-03-25T21:43:30.986Z,4.28
2019-03-25T21:45:59.837Z,4.10
2019-03-25T21:48:27.894Z,4.28
2019-03-25T21:50:55.928Z,4.55
2019-03-25T21:53:24.064Z,4.28
2019-03-25T21:55:52.093Z,4.08
2019-03-25T21:58:20.070Z,4.72
2019-03-25T22:00:48.337Z,4.72
2019-03-25T22:03:16.421Z,4.70
2019-03-25T22:05:44.481Z,4.37
2019-03-25T22:08:12.565Z,4.55
2019-03-25T22:10:42.984Z,3.83
2019-03-25T22:13:10.370Z,4.53
2019-03-25T22:15:38.259Z,5.08
2019-03-25T22:18:06.386Z,4.70
2019-03-25T22:20:34.357Z,4.85
2019-03-25T22:23:02.324Z,4.80
2019-03-25T22:25:30.191Z,5.17
2019-03-25T22:27:58.263Z,4.12
2019-03-25T22:30:26.370Z,4.15
2019-03-25T22:32:54.349Z,4.05
2019-03-25T22:35:22.428Z,4.33
2019-03-25T22:37:50.397Z,4.42
2019-03-25T22:40:18.529Z,5.75
2019-03-25T22:42:46.512Z,5.00
2019-03-25T22:45:18.523Z,4.10
2019-03-25T22:47:46.507Z,4.17
2019-03-25T22:50:31.636Z,3.83
2019-03-25T22:52:59.817Z,4.53
2019-03-25T22:55:27.877Z,4.85
2019-03-25T22:57:55.891Z,3.27
2019-03-25T23:00:26.127Z,4.53
2019-03-25T23:02:54.132Z,4.53
2019-03-25T23:05:22.121Z,4.10
2019-03-25T23:07:50.184Z,4.05
2019-03-25T23:10:18.317Z,3.90
2019-03-25T23:12:46.310Z,4.67
2019-03-25T23:15:14.264Z,4.15
2019-03-25T23:17:42.239Z,4.62
2019-03-25T23:20:10.214Z,4.45
2019-03-25T23:22:38.191Z,5.30
2019-03-25T23:25:06.196Z,4.35
2019-03-25T23:27:34.273Z,4.08
2019-03-25T23:30:02.345Z,4.83
2019-03-25T23:32:30.329Z,4.30
2019-03-25T23:34:58.296Z,4.47
2019-03-25T23:37:26.269Z,5.42
2019-03-25T23:39:54.254Z,3.58
2019-03-25T23:42:22.225Z,3.70
2019-03-25T23:44:50.278Z,4.65
2019-03-25T23:47:18.276Z,4.45
2019-03-25T23:49:46.265Z,3.58
2019-03-25T23:52:14.866Z,4.25
2019-03-25T23:54:42.929Z,3.95
2019-03-25T23:57:11.012Z,3.40
2019-03-25T23:59:39.108Z,3.77
